sensor_id;sensor_type;location;lat;lon;timestamp;temperature;humidity
26655;DHT22;14278;50.784;4.630;2023-07-20T00:00:50;18.30;99.90
26655;DHT22;14278;50.784;4.630;2023-07-20T00:03:19;18.20;99.90
26655;DHT22;14278;50.784;4.630;2023-07-20T00:05:49;18.20;99.90
26655;DHT22;14278;50.784;4.630;2023-07-20T00:08:16;18.40;99.90
26655;DHT22;14278;50.784;4.630;2023-07-20T00:10:42;18.40;99.90
26655;DHT22;14278;50.784;4.630;2023-07-20T00:13:09;18.20;99.90
26655;DHT22;14278;50.784;4.630;2023-07-20T00:15:35;18.10;99.90
26655;DHT22;14278;50.784;4.630;2023-07-20T00:18:01;18.00;99.90
26655;DHT22;14278;50.784;4.630;2023-07-20T00:20:27;18.10;99.90
26655;DHT22;14278;50.784;4.630;2023-07-20T00:22:54;18.30;99.90
26655;DHT22;14278;50.784;4.630;2023-07-20T00:25:20;18.30;99.90
26655;DHT22;14278;50.784;4.630;2023-07-20T00:27:46;18.50;99.90
26655;DHT22;14278;50.784;4.630;2023-07-20T00:30:12;18.40;99.90
26655;DHT22;14278;50.784;4.630;2023-07-20T00:32:38;18.50;99.90
26655;DHT22;14278;50.784;4.630;2023-07-20T00:35:05;18.60;99.90
26655;DHT22;14278;50.784;4.630;2023-07-20T00:37:31;18.30;99.90
26655;DHT22;14278;50.784;4.630;2023-07-20T00:39:56;18.40;99.90
26655;DHT22;14278;50.784;4.630;2023-07-20T00:42:22;18.40;99.90
26655;DHT22;14278;50.784;4.630;2023-07-20T00:44:48;18.30;99.90
26655;DHT22;14278;50.784;4.630;2023-07-20T00:47:15;18.20;99.90
26655;DHT22;14278;50.784;4.630;2023-07-20T00:49:41;17.90;99.90
26655;DHT22;14278;50.784;4.630;2023-07-20T00:52:07;18.00;99.90
26655;DHT22;14278;50.784;4.630;2023-07-20T00:54:34;17.90;99.90
26655;DHT22;14278;50.784;4.630;2023-07-20T00:57:01;18.10;99.90
26655;DHT22;14278;50.784;4.630;2023-07-20T00:59:27;18.30;99.90
26655;DHT22;14278;50.784;4.630;2023-07-20T01:01:53;18.30;99.90
26655;DHT22;14278;50.784;4.630;2023-07-20T01:04:19;18.30;99.90
26655;DHT22;14278;50.784;4.630;2023-07-20T01:06:56;18.40;99.90
26655;DHT22;14278;50.784;4.630;2023-07-20T01:09:38;18.40;99.90
26655;DHT22;14278;50.784;4.630;2023-07-20T01:12:22;18.40;99.90
26655;DHT22;14278;50.784;4.630;2023-07-20T01:14:49;18.50;99.90
26655;DHT22;14278;50.784;4.630;2023-07-20T01:17:15;18.20;99.90
26655;DHT22;14278;50.784;4.630;2023-07-20T01:19:41;18.30;99.90
26655;DHT22;14278;50.784;4.630;2023-07-20T01:22:34;18.20;99.90
26655;DHT22;14278;50.784;4.630;2023-07-20T01:25:34;17.70;99.90
26655;DHT22;14278;50.784;4.630;2023-07-20T01:31:25;17.80;99.90
26655;DHT22;14278;50.784;4.630;2023-07-20T01:33:56;17.80;99.90
26655;DHT22;14278;50.784;4.630;2023-07-20T01:36:24;17.70;99.90
26655;DHT22;14278;50.784;4.630;2023-07-20T01:38:52;17.90;99.90
26655;DHT22;14278;50.784;4.630;2023-07-20T01:41:18;18.00;99.90
26655;DHT22;14278;50.784;4.630;2023-07-20T01:43:44;18.10;99.90
26655;DHT22;14278;50.784;4.630;2023-07-20T01:46:10;17.80;99.90
26655;DHT22;14278;50.784;4.630;2023-07-20T01:48:36;17.80;99.90
26655;DHT22;14278;50.784;4.630;2023-07-20T01:51:02;17.80;99.90
26655;DHT22;14278;50.784;4.630;2023-07-20T01:53:27;17.70;99.90
26655;DHT22;14278;50.784;4.630;2023-07-20T01:55:53;17.70;99.90
26655;DHT22;14278;50.784;4.630;2023-07-20T01:58:20;17.80;99.90
26655;DHT22;14278;50.784;4.630;2023-07-20T02:00:46;17.80;99.90
26655;DHT22;14278;50.784;4.630;2023-07-20T02:03:12;17.70;99.90
26655;DHT22;14278;50.784;4.630;2023-07-20T02:05:38;17.90;99.90
26655;DHT22;14278;50.784;4.630;2023-07-20T02:08:04;17.80;99.90
26655;DHT22;14278;50.784;4.630;2023-07-20T02:10:30;17.80;99.90
26655;DHT22;14278;50.784;4.630;2023-07-20T02:12:56;17.90;99.90
26655;DHT22;14278;50.784;4.630;2023-07-20T02:15:22;17.70;99.90
26655;DHT22;14278;50.784;4.630;2023-07-20T02:17:47;17.70;99.90
26655;DHT22;14278;50.784;4.630;2023-07-20T02:20:13;17.90;99.90
26655;DHT22;14278;50.784;4.630;2023-07-20T02:22:40;17.90;99.90
26655;DHT22;14278;50.784;4.630;2023-07-20T02:25:07;18.00;99.90
26655;DHT22;14278;50.784;4.630;2023-07-20T02:27:35;18.00;99.90
26655;DHT22;14278;50.784;4.630;2023-07-20T02:30:02;18.10;99.90
26655;DHT22;14278;50.784;4.630;2023-07-20T02:32:28;18.10;99.90
26655;DHT22;14278;50.784;4.630;2023-07-20T02:34:54;18.20;99.90
26655;DHT22;14278;50.784;4.630;2023-07-20T02:37:20;18.30;99.90
26655;DHT22;14278;50.784;4.630;2023-07-20T02:39:46;17.90;99.90
26655;DHT22;14278;50.784;4.630;2023-07-20T02:42:12;17.50;99.90
26655;DHT22;14278;50.784;4.630;2023-07-20T02:44:38;17.60;99.90
26655;DHT22;14278;50.784;4.630;2023-07-20T02:47:04;17.50;99.90
26655;DHT22;14278;50.784;4.630;2023-07-20T02:49:31;17.60;99.90
26655;DHT22;14278;50.784;4.630;2023-07-20T02:51:56;17.40;99.90
26655;DHT22;14278;50.784;4.630;2023-07-20T02:54:22;17.50;99.90
26655;DHT22;14278;50.784;4.630;2023-07-20T02:56:48;17.50;99.90
26655;DHT22;14278;50.784;4.630;2023-07-20T02:59:14;17.50;99.90
26655;DHT22;14278;50.784;4.630;2023-07-20T03:01:40;17.20;99.90
26655;DHT22;14278;50.784;4.630;2023-07-20T03:04:08;17.30;99.90
26655;DHT22;14278;50.784;4.630;2023-07-20T03:06:36;17.50;99.90
26655;DHT22;14278;50.784;4.630;2023-07-20T03:09:02;17.50;99.90
26655;DHT22;14278;50.784;4.630;2023-07-20T03:11:29;17.30;99.90
26655;DHT22;14278;50.784;4.630;2023-07-20T03:13:55;17.50;99.90
26655;DHT22;14278;50.784;4.630;2023-07-20T03:16:23;17.60;99.90
26655;DHT22;14278;50.784;4.630;2023-07-20T03:18:49;17.80;99.90
26655;DHT22;14278;50.784;4.630;2023-07-20T03:21:14;17.50;99.90
26655;DHT22;14278;50.784;4.630;2023-07-20T03:23:41;17.60;99.90
26655;DHT22;14278;50.784;4.630;2023-07-20T03:26:07;17.60;99.90
26655;DHT22;14278;50.784;4.630;2023-07-20T03:28:36;17.60;99.90
26655;DHT22;14278;50.784;4.630;2023-07-20T03:31:01;17.50;99.90
26655;DHT22;14278;50.784;4.630;2023-07-20T03:33:29;17.70;99.90
26655;DHT22;14278;50.784;4.630;2023-07-20T03:35:56;17.80;99.90
26655;DHT22;14278;50.784;4.630;2023-07-20T03:38:24;17.80;99.90
26655;DHT22;14278;50.784;4.630;2023-07-20T03:40:51;17.80;99.90
26655;DHT22;14278;50.784;4.630;2023-07-20T03:43:17;17.90;99.90
26655;DHT22;14278;50.784;4.630;2023-07-20T03:45:43;17.90;99.90
26655;DHT22;14278;50.784;4.630;2023-07-20T03:48:09;17.90;99.90
26655;DHT22;14278;50.784;4.630;2023-07-20T03:50:36;17.80;99.90
26655;DHT22;14278;50.784;4.630;2023-07-20T03:53:02;17.90;99.90
26655;DHT22;14278;50.784;4.630;2023-07-20T03:55:28;17.90;99.90
26655;DHT22;14278;50.784;4.630;2023-07-20T03:57:54;17.80;99.90
26655;DHT22;14278;50.784;4.630;2023-07-20T04:00:19;17.70;99.90
26655;DHT22;14278;50.784;4.630;2023-07-20T04:02:46;17.70;99.90
26655;DHT22;14278;50.784;4.630;2023-07-20T04:05:11;17.90;99.90
26655;DHT22;14278;50.784;4.630;2023-07-20T04:07:37;17.60;99.90
26655;DHT22;14278;50.784;4.630;2023-07-20T04:10:03;17.50;99.90
26655;DHT22;14278;50.784;4.630;2023-07-20T04:12:29;17.70;99.90
26655;DHT22;14278;50.784;4.630;2023-07-20T04:14:55;17.70;99.90
26655;DHT22;14278;50.784;4.630;2023-07-20T04:17:21;17.80;99.90
26655;DHT22;14278;50.784;4.630;2023-07-20T04:19:47;17.80;99.90
26655;DHT22;14278;50.784;4.630;2023-07-20T04:22:13;17.90;99.90
26655;DHT22;14278;50.784;4.630;2023-07-20T04:24:42;18.10;99.90
26655;DHT22;14278;50.784;4.630;2023-07-20T04:27:08;18.10;99.90
26655;DHT22;14278;50.784;4.630;2023-07-20T04:29:34;18.10;99.90
26655;DHT22;14278;50.784;4.630;2023-07-20T04:32:00;17.70;99.90
26655;DHT22;14278;50.784;4.630;2023-07-20T04:34:26;17.50;99.90
26655;DHT22;14278;50.784;4.630;2023-07-20T04:36:51;17.60;99.90
26655;DHT22;14278;50.784;4.630;2023-07-20T04:39:17;17.90;99.90
26655;DHT22;14278;50.784;4.630;2023-07-20T04:41:44;18.10;99.90
26655;DHT22;14278;50.784;4.630;2023-07-20T04:44:10;18.30;99.90
26655;DHT22;14278;50.784;4.630;2023-07-20T04:46:36;18.10;99.90
26655;DHT22;14278;50.784;4.630;2023-07-20T04:49:02;17.70;99.90
26655;DHT22;14278;50.784;4.630;2023-07-20T04:51:28;17.80;99.90
26655;DHT22;14278;50.784;4.630;2023-07-20T04:53:56;17.50;99.90
26655;DHT22;14278;50.784;4.630;2023-07-20T04:56:22;17.90;99.90
26655;DHT22;14278;50.784;4.630;2023-07-20T04:58:49;18.20;99.90
26655;DHT22;14278;50.784;4.630;2023-07-20T05:01:14;17.90;99.90
26655;DHT22;14278;50.784;4.630;2023-07-20T05:03:41;18.10;99.90
26655;DHT22;14278;50.784;4.630;2023-07-20T05:06:06;18.40;99.90
26655;DHT22;14278;50.784;4.630;2023-07-20T05:08:32;18.00;99.90
26655;DHT22;14278;50.784;4.630;2023-07-20T05:10:59;18.20;99.90
26655;DHT22;14278;50.784;4.630;2023-07-20T05:13:25;18.40;99.90
26655;DHT22;14278;50.784;4.630;2023-07-20T05:15:52;18.70;99.90
26655;DHT22;14278;50.784;4.630;2023-07-20T05:18:18;19.10;99.90
26655;DHT22;14278;50.784;4.630;2023-07-20T05:20:48;19.20;99.90
26655;DHT22;14278;50.784;4.630;2023-07-20T05:23:14;19.40;99.90
26655;DHT22;14278;50.784;4.630;2023-07-20T05:25:40;19.50;99.90
26655;DHT22;14278;50.784;4.630;2023-07-20T05:28:06;19.60;99.90
26655;DHT22;14278;50.784;4.630;2023-07-20T05:30:32;19.60;99.90
26655;DHT22;14278;50.784;4.630;2023-07-20T05:32:58;19.80;99.90
26655;DHT22;14278;50.784;4.630;2023-07-20T05:35:23;19.70;99.90
26655;DHT22;14278;50.784;4.630;2023-07-20T05:37:49;19.80;99.90
26655;DHT22;14278;50.784;4.630;2023-07-20T05:40:16;19.50;99.90
26655;DHT22;14278;50.784;4.630;2023-07-20T05:42:45;19.70;99.90
26655;DHT22;14278;50.784;4.630;2023-07-20T05:45:11;19.50;99.90
26655;DHT22;14278;50.784;4.630;2023-07-20T05:47:37;19.60;99.90
26655;DHT22;14278;50.784;4.630;2023-07-20T05:50:03;19.70;99.90
26655;DHT22;14278;50.784;4.630;2023-07-20T05:52:30;20.00;99.90
26655;DHT22;14278;50.784;4.630;2023-07-20T05:54:56;19.90;99.90
26655;DHT22;14278;50.784;4.630;2023-07-20T05:57:21;19.90;99.90
26655;DHT22;14278;50.784;4.630;2023-07-20T05:59:47;19.50;99.90
26655;DHT22;14278;50.784;4.630;2023-07-20T06:02:13;19.50;99.90
26655;DHT22;14278;50.784;4.630;2023-07-20T06:04:39;19.80;99.90
26655;DHT22;14278;50.784;4.630;2023-07-20T06:07:05;19.90;99.90
26655;DHT22;14278;50.784;4.630;2023-07-20T06:09:33;20.00;99.90
26655;DHT22;14278;50.784;4.630;2023-07-20T06:11:59;19.90;99.90
26655;DHT22;14278;50.784;4.630;2023-07-20T06:14:25;20.30;99.90
26655;DHT22;14278;50.784;4.630;2023-07-20T06:16:51;20.30;99.90
26655;DHT22;14278;50.784;4.630;2023-07-20T06:19:17;20.40;99.90
26655;DHT22;14278;50.784;4.630;2023-07-20T06:21:43;20.30;99.90
26655;DHT22;14278;50.784;4.630;2023-07-20T06:24:09;20.30;99.90
26655;DHT22;14278;50.784;4.630;2023-07-20T06:26:35;20.30;99.90
26655;DHT22;14278;50.784;4.630;2023-07-20T06:29:05;20.40;99.90
26655;DHT22;14278;50.784;4.630;2023-07-20T06:31:32;20.20;99.90
26655;DHT22;14278;50.784;4.630;2023-07-20T06:33:58;20.10;99.90
26655;DHT22;14278;50.784;4.630;2023-07-20T06:36:24;20.20;99.90
26655;DHT22;14278;50.784;4.630;2023-07-20T06:38:51;20.20;99.90
26655;DHT22;14278;50.784;4.630;2023-07-20T06:41:18;20.20;99.90
26655;DHT22;14278;50.784;4.630;2023-07-20T06:43:44;20.30;99.90
26655;DHT22;14278;50.784;4.630;2023-07-20T06:46:10;20.30;99.90
26655;DHT22;14278;50.784;4.630;2023-07-20T06:48:36;20.50;99.90
26655;DHT22;14278;50.784;4.630;2023-07-20T06:51:02;20.50;99.90
26655;DHT22;14278;50.784;4.630;2023-07-20T06:53:29;20.70;99.90
26655;DHT22;14278;50.784;4.630;2023-07-20T06:55:55;20.60;99.90
26655;DHT22;14278;50.784;4.630;2023-07-20T06:58:24;20.70;99.90
26655;DHT22;14278;50.784;4.630;2023-07-20T07:00:50;20.80;99.90
26655;DHT22;14278;50.784;4.630;2023-07-20T07:03:16;20.70;99.90
26655;DHT22;14278;50.784;4.630;2023-07-20T07:05:43;20.70;99.90
26655;DHT22;14278;50.784;4.630;2023-07-20T07:08:10;21.00;99.90
26655;DHT22;14278;50.784;4.630;2023-07-20T07:10:36;21.30;99.90
26655;DHT22;14278;50.784;4.630;2023-07-20T07:13:02;21.30;99.90
26655;DHT22;14278;50.784;4.630;2023-07-20T07:15:29;21.20;99.90
26655;DHT22;14278;50.784;4.630;2023-07-20T07:17:55;21.30;99.90
26655;DHT22;14278;50.784;4.630;2023-07-20T07:20:22;21.70;99.90
26655;DHT22;14278;50.784;4.630;2023-07-20T07:22:50;21.80;99.90
26655;DHT22;14278;50.784;4.630;2023-07-20T07:25:16;21.80;99.90
26655;DHT22;14278;50.784;4.630;2023-07-20T07:27:42;22.00;99.90
26655;DHT22;14278;50.784;4.630;2023-07-20T07:30:08;22.40;99.90
26655;DHT22;14278;50.784;4.630;2023-07-20T07:32:34;22.70;99.90
26655;DHT22;14278;50.784;4.630;2023-07-20T07:35:00;23.50;99.90
26655;DHT22;14278;50.784;4.630;2023-07-20T07:37:26;23.80;99.90
26655;DHT22;14278;50.784;4.630;2023-07-20T07:39:52;23.90;99.90
26655;DHT22;14278;50.784;4.630;2023-07-20T07:42:18;23.70;99.90
26655;DHT22;14278;50.784;4.630;2023-07-20T07:44:44;23.80;99.90
26655;DHT22;14278;50.784;4.630;2023-07-20T07:47:10;25.90;99.90
26655;DHT22;14278;50.784;4.630;2023-07-20T07:49:36;28.80;99.90
26655;DHT22;14278;50.784;4.630;2023-07-20T07:52:02;31.70;99.90
26655;DHT22;14278;50.784;4.630;2023-07-20T07:54:28;31.70;99.90
26655;DHT22;14278;50.784;4.630;2023-07-20T07:56:54;34.70;99.90
26655;DHT22;14278;50.784;4.630;2023-07-20T07:59:20;34.70;99.90
26655;DHT22;14278;50.784;4.630;2023-07-20T08:01:46;37.50;99.90
26655;DHT22;14278;50.784;4.630;2023-07-20T08:04:12;39.40;95.70
26655;DHT22;14278;50.784;4.630;2023-07-20T08:06:39;40.70;90.40
26655;DHT22;14278;50.784;4.630;2023-07-20T08:09:05;39.80;85.30
26655;DHT22;14278;50.784;4.630;2023-07-20T08:11:31;38.70;83.70
26655;DHT22;14278;50.784;4.630;2023-07-20T08:13:59;35.50;90.30
26655;DHT22;14278;50.784;4.630;2023-07-20T08:16:26;35.10;91.60
26655;DHT22;14278;50.784;4.630;2023-07-20T08:18:52;34.00;92.10
26655;DHT22;14278;50.784;4.630;2023-07-20T08:21:18;33.40;91.90
26655;DHT22;14278;50.784;4.630;2023-07-20T08:23:44;33.60;92.40
26655;DHT22;14278;50.784;4.630;2023-07-20T08:26:10;32.80;92.50
26655;DHT22;14278;50.784;4.630;2023-07-20T08:28:35;31.30;94.40
26655;DHT22;14278;50.784;4.630;2023-07-20T08:31:02;30.40;96.60
26655;DHT22;14278;50.784;4.630;2023-07-20T08:33:28;30.20;98.00
26655;DHT22;14278;50.784;4.630;2023-07-20T08:35:58;31.60;96.20
26655;DHT22;14278;50.784;4.630;2023-07-20T08:38:24;31.30;98.50
26655;DHT22;14278;50.784;4.630;2023-07-20T08:40:51;32.20;96.20
26655;DHT22;14278;50.784;4.630;2023-07-20T08:43:23;32.20;94.90
26655;DHT22;14278;50.784;4.630;2023-07-20T08:45:54;31.70;96.80
26655;DHT22;14278;50.784;4.630;2023-07-20T08:48:21;28.80;99.20
26655;DHT22;14278;50.784;4.630;2023-07-20T08:50:50;28.90;99.90
26655;DHT22;14278;50.784;4.630;2023-07-20T08:53:16;28.30;99.60
26655;DHT22;14278;50.784;4.630;2023-07-20T08:55:44;28.30;99.90
26655;DHT22;14278;50.784;4.630;2023-07-20T08:58:12;28.80;99.90
26655;DHT22;14278;50.784;4.630;2023-07-20T09:00:41;29.00;99.90
26655;DHT22;14278;50.784;4.630;2023-07-20T09:03:07;29.70;99.90
26655;DHT22;14278;50.784;4.630;2023-07-20T09:05:34;29.70;98.50
26655;DHT22;14278;50.784;4.630;2023-07-20T09:08:01;29.20;99.70
26655;DHT22;14278;50.784;4.630;2023-07-20T09:10:29;29.20;99.90
26655;DHT22;14278;50.784;4.630;2023-07-20T09:12:55;28.50;99.90
26655;DHT22;14278;50.784;4.630;2023-07-20T09:15:22;27.50;99.90
26655;DHT22;14278;50.784;4.630;2023-07-20T09:17:49;25.90;99.90
26655;DHT22;14278;50.784;4.630;2023-07-20T09:20:16;26.60;99.90
26655;DHT22;14278;50.784;4.630;2023-07-20T09:22:43;27.20;99.90
26655;DHT22;14278;50.784;4.630;2023-07-20T09:25:18;26.80;99.90
26655;DHT22;14278;50.784;4.630;2023-07-20T09:27:49;26.80;99.90
26655;DHT22;14278;50.784;4.630;2023-07-20T09:30:15;26.50;99.90
26655;DHT22;14278;50.784;4.630;2023-07-20T09:32:46;25.50;99.90
26655;DHT22;14278;50.784;4.630;2023-07-20T09:35:17;25.60;99.90
26655;DHT22;14278;50.784;4.630;2023-07-20T09:37:50;26.50;99.90
26655;DHT22;14278;50.784;4.630;2023-07-20T09:40:20;26.90;99.90
26655;DHT22;14278;50.784;4.630;2023-07-20T09:42:46;27.20;99.90
26655;DHT22;14278;50.784;4.630;2023-07-20T09:45:13;27.70;99.90
26655;DHT22;14278;50.784;4.630;2023-07-20T09:47:39;25.60;99.90
26655;DHT22;14278;50.784;4.630;2023-07-20T09:50:07;26.80;99.90
26655;DHT22;14278;50.784;4.630;2023-07-20T09:52:41;27.70;99.90
26655;DHT22;14278;50.784;4.630;2023-07-20T09:55:10;27.40;99.90
26655;DHT22;14278;50.784;4.630;2023-07-20T09:57:38;27.90;99.90
26655;DHT22;14278;50.784;4.630;2023-07-20T10:00:06;27.90;99.90
26655;DHT22;14278;50.784;4.630;2023-07-20T10:02:44;27.60;99.90
26655;DHT22;14278;50.784;4.630;2023-07-20T10:05:14;28.60;99.90
26655;DHT22;14278;50.784;4.630;2023-07-20T10:07:47;28.10;99.90
26655;DHT22;14278;50.784;4.630;2023-07-20T10:10:18;28.50;99.90
26655;DHT22;14278;50.784;4.630;2023-07-20T10:12:47;25.60;99.90
26655;DHT22;14278;50.784;4.630;2023-07-20T10:15:32;25.50;99.90
26655;DHT22;14278;50.784;4.630;2023-07-20T10:18:06;25.30;99.90
26655;DHT22;14278;50.784;4.630;2023-07-20T10:20:36;26.10;99.90
26655;DHT22;14278;50.784;4.630;2023-07-20T10:23:04;26.30;99.90
26655;DHT22;14278;50.784;4.630;2023-07-20T10:25:30;25.70;99.90
26655;DHT22;14278;50.784;4.630;2023-07-20T10:27:58;26.90;99.90
26655;DHT22;14278;50.784;4.630;2023-07-20T10:30:25;27.80;99.90
26655;DHT22;14278;50.784;4.630;2023-07-20T10:32:52;27.40;99.90
26655;DHT22;14278;50.784;4.630;2023-07-20T10:35:18;27.40;99.90
26655;DHT22;14278;50.784;4.630;2023-07-20T10:37:55;26.40;99.90
26655;DHT22;14278;50.784;4.630;2023-07-20T10:40:38;26.90;99.90
26655;DHT22;14278;50.784;4.630;2023-07-20T10:43:07;24.60;99.90
26655;DHT22;14278;50.784;4.630;2023-07-20T10:45:48;24.60;99.90
26655;DHT22;14278;50.784;4.630;2023-07-20T10:48:24;25.60;99.90
26655;DHT22;14278;50.784;4.630;2023-07-20T10:51:13;24.60;99.90
26655;DHT22;14278;50.784;4.630;2023-07-20T10:53:42;23.90;99.90
26655;DHT22;14278;50.784;4.630;2023-07-20T10:56:15;25.00;99.90
26655;DHT22;14278;50.784;4.630;2023-07-20T10:58:44;26.50;99.90
26655;DHT22;14278;50.784;4.630;2023-07-20T11:01:17;26.90;99.90
26655;DHT22;14278;50.784;4.630;2023-07-20T11:03:48;27.10;99.90
26655;DHT22;14278;50.784;4.630;2023-07-20T11:11:34;28.00;99.90
26655;DHT22;14278;50.784;4.630;2023-07-20T11:14:03;28.20;99.90
26655;DHT22;14278;50.784;4.630;2023-07-20T11:16:46;29.10;99.90
26655;DHT22;14278;50.784;4.630;2023-07-20T11:19:17;30.60;99.90
26655;DHT22;14278;50.784;4.630;2023-07-20T11:21:50;31.10;99.90
26655;DHT22;14278;50.784;4.630;2023-07-20T11:24:17;31.30;99.90
26655;DHT22;14278;50.784;4.630;2023-07-20T11:26:45;30.60;99.90
26655;DHT22;14278;50.784;4.630;2023-07-20T11:29:12;30.60;99.90
26655;DHT22;14278;50.784;4.630;2023-07-20T11:31:39;31.40;97.30
26655;DHT22;14278;50.784;4.630;2023-07-20T11:34:05;30.90;97.10
26655;DHT22;14278;50.784;4.630;2023-07-20T11:36:33;32.10;97.10
26655;DHT22;14278;50.784;4.630;2023-07-20T11:38:59;32.90;93.20
26655;DHT22;14278;50.784;4.630;2023-07-20T11:41:25;33.40;91.50
26655;DHT22;14278;50.784;4.630;2023-07-20T11:43:53;33.10;92.20
26655;DHT22;14278;50.784;4.630;2023-07-20T11:46:19;33.00;96.00
26655;DHT22;14278;50.784;4.630;2023-07-20T11:48:45;34.00;91.70
26655;DHT22;14278;50.784;4.630;2023-07-20T11:51:16;34.20;92.10
26655;DHT22;14278;50.784;4.630;2023-07-20T11:53:43;33.70;92.80
26655;DHT22;14278;50.784;4.630;2023-07-20T11:56:10;32.60;91.70
26655;DHT22;14278;50.784;4.630;2023-07-20T11:58:36;30.60;93.80
26655;DHT22;14278;50.784;4.630;2023-07-20T12:01:07;30.40;94.70
26655;DHT22;14278;50.784;4.630;2023-07-20T12:03:34;30.00;93.60
26655;DHT22;14278;50.784;4.630;2023-07-20T12:06:07;29.60;93.50
26655;DHT22;14278;50.784;4.630;2023-07-20T12:08:33;29.30;94.10
26655;DHT22;14278;50.784;4.630;2023-07-20T12:10:59;29.10;94.50
26655;DHT22;14278;50.784;4.630;2023-07-20T12:13:45;27.90;96.10
26655;DHT22;14278;50.784;4.630;2023-07-20T12:16:16;27.80;96.80
26655;DHT22;14278;50.784;4.630;2023-07-20T12:18:45;28.30;97.40
26655;DHT22;14278;50.784;4.630;2023-07-20T12:21:11;28.40;97.40
26655;DHT22;14278;50.784;4.630;2023-07-20T12:23:40;28.60;96.50
26655;DHT22;14278;50.784;4.630;2023-07-20T12:26:08;29.10;97.40
26655;DHT22;14278;50.784;4.630;2023-07-20T12:28:41;29.20;98.50
26655;DHT22;14278;50.784;4.630;2023-07-20T12:31:10;29.20;98.50
26655;DHT22;14278;50.784;4.630;2023-07-20T12:33:37;28.80;97.90
26655;DHT22;14278;50.784;4.630;2023-07-20T12:36:04;28.00;99.20
26655;DHT22;14278;50.784;4.630;2023-07-20T12:38:30;28.60;99.90
26655;DHT22;14278;50.784;4.630;2023-07-20T12:40:57;28.40;99.90
26655;DHT22;14278;50.784;4.630;2023-07-20T12:43:24;29.00;98.60
26655;DHT22;14278;50.784;4.630;2023-07-20T12:45:50;29.10;99.10
26655;DHT22;14278;50.784;4.630;2023-07-20T12:48:15;28.10;97.10
26655;DHT22;14278;50.784;4.630;2023-07-20T12:50:42;27.20;98.80
26655;DHT22;14278;50.784;4.630;2023-07-20T12:53:08;26.80;99.90
26655;DHT22;14278;50.784;4.630;2023-07-20T12:55:33;27.30;99.90
26655;DHT22;14278;50.784;4.630;2023-07-20T12:57:59;27.50;99.90
26655;DHT22;14278;50.784;4.630;2023-07-20T13:00:25;27.60;99.90
26655;DHT22;14278;50.784;4.630;2023-07-20T13:02:51;27.90;99.90
26655;DHT22;14278;50.784;4.630;2023-07-20T13:05:17;28.10;99.90
26655;DHT22;14278;50.784;4.630;2023-07-20T13:07:43;27.70;99.90
26655;DHT22;14278;50.784;4.630;2023-07-20T13:10:10;27.60;99.90
26655;DHT22;14278;50.784;4.630;2023-07-20T13:12:37;27.00;99.90
26655;DHT22;14278;50.784;4.630;2023-07-20T13:15:05;27.20;99.90
26655;DHT22;14278;50.784;4.630;2023-07-20T13:17:32;27.70;99.90
26655;DHT22;14278;50.784;4.630;2023-07-20T13:19:58;28.10;99.90
26655;DHT22;14278;50.784;4.630;2023-07-20T13:22:24;28.10;99.90
26655;DHT22;14278;50.784;4.630;2023-07-20T13:24:50;28.00;99.40
26655;DHT22;14278;50.784;4.630;2023-07-20T13:27:17;28.00;99.90
26655;DHT22;14278;50.784;4.630;2023-07-20T13:29:43;27.60;99.90
26655;DHT22;14278;50.784;4.630;2023-07-20T13:32:09;27.70;99.90
26655;DHT22;14278;50.784;4.630;2023-07-20T13:34:35;27.90;99.90
26655;DHT22;14278;50.784;4.630;2023-07-20T13:37:01;27.80;99.90
26655;DHT22;14278;50.784;4.630;2023-07-20T13:39:28;26.70;99.90
26655;DHT22;14278;50.784;4.630;2023-07-20T13:41:54;27.30;99.90
26655;DHT22;14278;50.784;4.630;2023-07-20T13:44:20;27.10;99.90
26655;DHT22;14278;50.784;4.630;2023-07-20T13:46:49;27.10;99.90
26655;DHT22;14278;50.784;4.630;2023-07-20T13:49:15;27.40;99.90
26655;DHT22;14278;50.784;4.630;2023-07-20T13:51:45;27.70;99.90
26655;DHT22;14278;50.784;4.630;2023-07-20T13:54:11;27.80;99.90
26655;DHT22;14278;50.784;4.630;2023-07-20T13:56:37;27.50;99.90
26655;DHT22;14278;50.784;4.630;2023-07-20T13:59:03;27.50;99.90
26655;DHT22;14278;50.784;4.630;2023-07-20T14:01:29;27.40;99.90
26655;DHT22;14278;50.784;4.630;2023-07-20T14:03:57;27.30;99.90
26655;DHT22;14278;50.784;4.630;2023-07-20T14:06:23;26.80;99.90
26655;DHT22;14278;50.784;4.630;2023-07-20T14:08:48;26.70;99.90
26655;DHT22;14278;50.784;4.630;2023-07-20T14:11:15;26.70;99.90
26655;DHT22;14278;50.784;4.630;2023-07-20T14:13:41;26.80;99.90
26655;DHT22;14278;50.784;4.630;2023-07-20T14:16:07;26.80;99.90
26655;DHT22;14278;50.784;4.630;2023-07-20T14:18:34;27.10;99.90
26655;DHT22;14278;50.784;4.630;2023-07-20T14:21:00;26.60;99.90
26655;DHT22;14278;50.784;4.630;2023-07-20T14:23:28;26.30;99.90
26655;DHT22;14278;50.784;4.630;2023-07-20T14:25:54;26.00;99.90
26655;DHT22;14278;50.784;4.630;2023-07-20T14:28:21;25.90;99.90
26655;DHT22;14278;50.784;4.630;2023-07-20T14:30:46;25.80;99.90
26655;DHT22;14278;50.784;4.630;2023-07-20T14:33:12;25.90;99.90
26655;DHT22;14278;50.784;4.630;2023-07-20T14:35:38;25.70;99.90
26655;DHT22;14278;50.784;4.630;2023-07-20T14:38:04;25.50;99.90
26655;DHT22;14278;50.784;4.630;2023-07-20T14:40:30;24.70;99.90
26655;DHT22;14278;50.784;4.630;2023-07-20T14:42:56;24.20;99.90
26655;DHT22;14278;50.784;4.630;2023-07-20T14:45:22;24.30;99.90
26655;DHT22;14278;50.784;4.630;2023-07-20T14:47:48;24.30;99.90
26655;DHT22;14278;50.784;4.630;2023-07-20T14:50:19;24.70;99.90
26655;DHT22;14278;50.784;4.630;2023-07-20T14:52:46;25.10;99.90
26655;DHT22;14278;50.784;4.630;2023-07-20T14:55:12;25.00;99.90
26655;DHT22;14278;50.784;4.630;2023-07-20T14:57:38;25.20;99.90
26655;DHT22;14278;50.784;4.630;2023-07-20T15:00:05;25.60;99.90
26655;DHT22;14278;50.784;4.630;2023-07-20T15:02:38;25.50;99.90
26655;DHT22;14278;50.784;4.630;2023-07-20T15:05:07;24.30;99.90
26655;DHT22;14278;50.784;4.630;2023-07-20T15:07:33;23.90;99.90
26655;DHT22;14278;50.784;4.630;2023-07-20T15:10:00;23.70;99.90
26655;DHT22;14278;50.784;4.630;2023-07-20T15:12:26;24.00;99.90
26655;DHT22;14278;50.784;4.630;2023-07-20T15:15:08;23.60;99.90
26655;DHT22;14278;50.784;4.630;2023-07-20T15:17:35;23.70;99.90
26655;DHT22;14278;50.784;4.630;2023-07-20T15:20:03;23.80;99.90
26655;DHT22;14278;50.784;4.630;2023-07-20T15:22:30;23.60;99.90
26655;DHT22;14278;50.784;4.630;2023-07-20T15:24:56;23.70;99.90
26655;DHT22;14278;50.784;4.630;2023-07-20T15:27:22;23.90;99.90
26655;DHT22;14278;50.784;4.630;2023-07-20T15:29:51;24.20;99.90
26655;DHT22;14278;50.784;4.630;2023-07-20T15:32:18;23.80;99.90
26655;DHT22;14278;50.784;4.630;2023-07-20T15:34:44;23.70;99.90
26655;DHT22;14278;50.784;4.630;2023-07-20T15:37:11;23.70;99.90
26655;DHT22;14278;50.784;4.630;2023-07-20T15:39:37;24.00;99.90